Station Historical Data
 
Daily Summary for June 26, 2017 Units:  Metric    English   Both
« Previous Day
Next Day »
Daily Weekly Monthly Yearly Custom
  Current: High: Low: Average:
Temperature: 20.6 °C 22.1 °C 20.6 °C 21.5 °C
Dew Point: 17.4 °C 17.7 °C 17.2 °C 17.4 °C
Humidity: 82 % 82 % 74 % 78 %
Wind Speed: 3.7 km/h 5.6 km/h 0.0 km/h 2.2 km/h
Wind Gust: 3.7 km/h 5.6 km/h - -
Wind:NE - - East
Pressure: 1011.1 hPa 1011.1 hPa 1010.7 hPa -
Precipitation: 0.0 mm      
Historical Graphs
 
 
Tabular Data for June 26, 2017
Time Temperature Dew Point Pressure Wind Wind Speed Wind Gust Humidity Rainfall Rate (Hourly) solar Conditions
00:01 22.1 °C 17.2 °C 1010.7 hPa Calm     74 % 0.0 mm 0.0 W/m2 RA
00:06 22.1 °C 17.2 °C 1010.7 hPa Calm     74 % 0.0 mm 0.0 W/m2 RA
00:11 22.0 °C 17.2 °C 1010.7 hPa SSE 1.9 km/h 1.9 km/h 74 % 0.0 mm 0.0 W/m2 CLR
00:16 22.0 °C 17.4 °C 1010.7 hPa SSE 1.6 km/h 1.6 km/h 75 % 0.0 mm 0.0 W/m2 CLR
00:21 22.0 °C 17.4 °C 1010.7 hPa SSE 1.9 km/h 1.9 km/h 75 % 0.0 mm 0.0 W/m2 CLR
00:26 22.0 °C 17.4 °C 1010.7 hPa SSE 3.7 km/h 3.7 km/h 75 % 0.0 mm 0.0 W/m2 CLR
00:31 21.9 °C 17.3 °C 1010.7 hPa SSE 3.2 km/h 3.2 km/h 75 % 0.0 mm 0.0 W/m2 CLR
00:36 21.9 °C 17.3 °C 1010.7 hPa SSE 3.7 km/h 3.7 km/h 75 % 0.0 mm 0.0 W/m2 CLR
00:41 21.9 °C 17.3 °C 1011.1 hPa SSE 3.7 km/h 3.7 km/h 75 % 0.0 mm 0.0 W/m2 CLR
00:46 21.9 °C 17.4 °C 1010.7 hPa Calm     76 % 0.0 mm 0.0 W/m2 CLR
00:52 21.8 °C 17.4 °C 1011.1 hPa Calm     76 % 0.0 mm 0.0 W/m2 CLR
00:58 21.8 °C 17.6 °C 1011.1 hPa SSE 3.7 km/h 3.7 km/h 77 % 0.0 mm 0.0 W/m2 CLR
01:03 21.7 °C 17.4 °C 1011.1 hPa NE 5.6 km/h 5.6 km/h 77 % 0.0 mm 0.0 W/m2 CLR
01:08 21.6 °C 17.3 °C 1010.7 hPa Calm     77 % 0.0 mm 0.0 W/m2 CLR
01:13 21.5 °C 17.5 °C 1010.7 hPa Calm     78 % 0.0 mm 0.0 W/m2 CLR
01:18 21.4 °C 17.4 °C 1010.7 hPa NE 1.6 km/h 1.6 km/h 78 % 0.0 mm 0.0 W/m2 CLR
01:23 21.3 °C 17.6 °C 1010.7 hPa NE 3.7 km/h 3.7 km/h 79 % 0.0 mm 0.0 W/m2 CLR
01:28 21.3 °C 17.7 °C 1010.7 hPa NE 3.2 km/h 3.2 km/h 80 % 0.0 mm 0.0 W/m2 CLR
01:33 21.2 °C 17.6 °C 1010.7 hPa NE 3.7 km/h 3.7 km/h 80 % 0.0 mm 0.0 W/m2 CLR
01:38 21.1 °C 17.7 °C 1011.1 hPa Calm     81 % 0.0 mm 0.0 W/m2 CLR
01:43 20.9 °C 17.6 °C 1011.1 hPa Calm     81 % 0.0 mm 0.0 W/m2 CLR
01:48 20.8 °C 17.4 °C 1011.1 hPa NE 3.7 km/h 3.7 km/h 81 % 0.0 mm 0.0 W/m2 CLR
01:53 20.8 °C 17.6 °C 1011.1 hPa NE 3.7 km/h 3.7 km/h 82 % 0.0 mm 0.0 W/m2 CLR
01:58 20.7 °C 17.5 °C 1011.1 hPa NE 3.7 km/h 3.7 km/h 82 % 0.0 mm 0.0 W/m2 CLR
02:03 20.6 °C 17.4 °C 1011.1 hPa NE 3.7 km/h 3.7 km/h 82 % 0.0 mm 0.0 W/m2 CLR
Juneau County Weather
Compliments of Weather Underground - 1.75 mb